Terminal Aerodrome Forecast
Issued by NWS

Home | Current Version | Previous Version | Text Only | Print | Product List | Glossary On
Versions: 1 2 3 4 5 6 7 8 9 10 11 12 13 14 15
000
FTUS41 KPBZ 230500
TAFMGW
TAF
KMGW 230528Z 2306/2406 19003KT P6SM SKC
      TEMPO 2309/2312 4SM BR
     FM231900 24010KT 5SM -SHRA VCTS BKN035CB
     FM240300 27010KT P6SM BKN035=

USA.gov is the U.S. government's official web portal to all federal, state and local government web resources and services.